createdAt,value
2022-11-02T00:00:03.246Z,101105.00
2022-11-02T00:02:38.153Z,101103.81
2022-11-02T00:05:09.570Z,101107.50
2022-11-02T00:07:40.282Z,101105.13
2022-11-02T00:10:12.466Z,101101.94
2022-11-02T00:12:44.430Z,101102.72
2022-11-02T00:15:15.205Z,101097.91
2022-11-02T00:17:51.020Z,101096.34
2022-11-02T00:20:23.523Z,101103.19
2022-11-02T00:22:58.926Z,101093.50
2022-11-02T00:25:31.343Z,101086.22
2022-11-02T00:28:04.018Z,101089.88
2022-11-02T00:30:34.183Z,101097.53
2022-11-02T00:33:04.787Z,101092.72
2022-11-02T00:35:36.772Z,101097.97
2022-11-02T00:38:06.747Z,101107.25
2022-11-02T00:40:37.586Z,101104.44
2022-11-02T00:43:09.647Z,101111.72
2022-11-02T00:45:39.714Z,101110.91
2022-11-02T00:48:10.539Z,101113.72
2022-11-02T00:50:40.907Z,101108.09
2022-11-02T00:53:10.971Z,101107.63
2022-11-02T00:55:40.460Z,101109.22
2022-11-02T00:58:12.329Z,101108.75
2022-11-02T01:00:43.154Z,101116.00
2022-11-02T01:03:12.979Z,101107.03
2022-11-02T01:05:48.513Z,101104.94
2022-11-02T01:08:19.141Z,101100.50
2022-11-02T01:10:49.591Z,101100.06
2022-11-02T01:13:21.371Z,101089.13
2022-11-02T01:15:51.588Z,101093.53
2022-11-02T01:18:22.215Z,101093.47
2022-11-02T01:20:59.554Z,101093.00
2022-11-02T01:23:30.057Z,101088.56
2022-11-02T01:26:00.682Z,101082.84
2022-11-02T01:28:38.580Z,101084.88
2022-11-02T01:31:09.624Z,101081.59
2022-11-02T01:33:40.571Z,101073.47
2022-11-02T01:38:53.142Z,101077.13
2022-11-02T01:41:23.691Z,101078.78
2022-11-02T01:44:01.031Z,101086.06
2022-11-02T01:46:41.769Z,101083.66
2022-11-02T01:49:17.289Z,101085.28
2022-11-02T01:51:54.132Z,101083.28
2022-11-02T01:54:30.069Z,101082.91
2022-11-02T01:57:06.019Z,101078.09
2022-11-02T01:59:45.097Z,101082.09
2022-11-02T02:02:22.021Z,101084.88
2022-11-02T02:04:57.669Z,101086.41
2022-11-02T02:07:29.660Z,101082.72
2022-11-02T02:10:03.690Z,101088.28
2022-11-02T02:12:37.374Z,101088.19
2022-11-02T02:15:12.035Z,101098.63
2022-11-02T02:17:51.359Z,101094.88
2022-11-02T02:20:44.767Z,101094.03
2022-11-02T02:24:09.725Z,101098.31
2022-11-02T02:27:07.933Z,101098.25
2022-11-02T02:30:03.248Z,101093.78
2022-11-02T02:32:46.826Z,101086.88
2022-11-02T02:35:30.469Z,101094.06
2022-11-02T02:38:05.899Z,101094.78
2022-11-02T02:40:41.880Z,101095.63
2022-11-02T02:43:20.721Z,101094.00
2022-11-02T02:45:58.254Z,101102.81
2022-11-02T02:48:29.202Z,101099.53
2022-11-02T02:51:08.006Z,101101.53
2022-11-02T02:53:46.531Z,101097.09
2022-11-02T02:56:21.443Z,101090.19
2022-11-02T02:58:58.868Z,101098.19
2022-11-02T03:01:32.344Z,101100.56
2022-11-02T03:04:03.189Z,101105.75
2022-11-02T03:06:36.559Z,101111.03
2022-11-02T03:09:16.410Z,101108.22
2022-11-02T03:12:03.330Z,101109.41
2022-11-02T03:14:47.163Z,101109.78
2022-11-02T03:17:27.646Z,101108.16
2022-11-02T03:20:08.331Z,101105.69
2022-11-02T03:22:52.824Z,101100.41
2022-11-02T03:25:31.618Z,101099.63
2022-11-02T03:28:12.555Z,101099.16
2022-11-02T03:30:49.496Z,101099.88
2022-11-02T03:33:31.969Z,101094.97
2022-11-02T03:36:10.488Z,101096.16
2022-11-02T03:38:48.536Z,101093.72
2022-11-02T03:41:20.634Z,101093.25
2022-11-02T03:43:55.439Z,101098.56
2022-11-02T03:46:27.775Z,101092.47
2022-11-02T03:49:06.075Z,101092.47
2022-11-02T03:51:45.001Z,101093.19
2022-11-02T03:54:25.611Z,101101.19
2022-11-02T03:57:05.816Z,101093.13
2022-11-02T03:59:37.057Z,101099.94
2022-11-02T04:02:07.429Z,101098.75
2022-11-02T04:04:51.070Z,101105.56
2022-11-02T04:07:52.416Z,101107.59
2022-11-02T04:10:24.376Z,101109.13
2022-11-02T04:13:11.634Z,101113.56
2022-11-02T04:15:42.297Z,101115.13
2022-11-02T04:18:28.959Z,101114.31
2022-11-02T04:21:16.203Z,101121.16
2022-11-02T04:24:03.185Z,101118.34
2022-11-02T04:26:35.585Z,101117.16
2022-11-02T04:29:06.547Z,101120.78
2022-11-02T04:31:37.262Z,101122.03
2022-11-02T04:34:05.861Z,101123.22
2022-11-02T04:36:37.727Z,101122.88
2022-11-02T04:39:06.352Z,101128.97
2022-11-02T04:41:45.921Z,101135.94
2022-11-02T04:44:17.966Z,101131.28
2022-11-02T04:46:48.791Z,101133.47
2022-11-02T04:49:19.116Z,101135.72
2022-11-02T04:51:51.143Z,101142.75
2022-11-02T04:54:21.883Z,101144.66
2022-11-02T04:56:52.314Z,101139.69
2022-11-02T04:59:22.836Z,101142.78
2022-11-02T05:01:53.271Z,101142.25
2022-11-02T05:04:23.621Z,101147.06
2022-11-02T05:07:01.084Z,101147.31
2022-11-02T05:09:32.090Z,101148.38
2022-11-02T05:12:05.528Z,101150.28
2022-11-02T05:14:35.672Z,101157.00
2022-11-02T05:17:06.509Z,101155.66
2022-11-02T05:19:36.951Z,101160.75
2022-11-02T05:22:09.370Z,101158.94
2022-11-02T05:24:40.046Z,101168.03
2022-11-02T05:27:11.933Z,101167.06
2022-11-02T05:29:42.343Z,101169.31
2022-11-02T05:32:12.628Z,101169.50
2022-11-02T05:34:42.967Z,101175.31
2022-11-02T05:37:16.477Z,101173.81
2022-11-02T05:39:49.489Z,101182.06
2022-11-02T05:42:20.891Z,101181.38
2022-11-02T05:44:50.983Z,101181.03
2022-11-02T05:47:20.559Z,101179.09
2022-11-02T05:49:50.986Z,101181.91
2022-11-02T05:52:23.358Z,101183.19
2022-11-02T05:54:53.372Z,101189.38
2022-11-02T05:57:24.503Z,101180.63
2022-11-02T05:59:54.438Z,101192.56
2022-11-02T06:02:25.451Z,101196.34
2022-11-02T06:04:55.332Z,101192.41
2022-11-02T06:07:28.094Z,101198.63
2022-11-02T06:09:58.539Z,101201.59
2022-11-02T06:12:28.474Z,101207.72
2022-11-02T06:14:59.208Z,101203.72
2022-11-02T06:17:29.512Z,101199.72
2022-11-02T06:19:59.694Z,101196.53
2022-11-02T06:22:31.486Z,101196.16
2022-11-02T06:25:01.768Z,101192.22
2022-11-02T06:27:31.715Z,101196.72
2022-11-02T06:30:02.051Z,101199.56
2022-11-02T06:32:32.012Z,101206.47
2022-11-02T06:35:02.560Z,101205.69
2022-11-02T06:37:37.063Z,101201.25
2022-11-02T06:40:08.691Z,101213.91
2022-11-02T06:42:45.078Z,101212.72
2022-11-02T06:45:20.284Z,101209.47
2022-11-02T06:47:52.109Z,101207.88
2022-11-02T06:50:23.062Z,101201.38
2022-11-02T06:52:56.283Z,101204.63
2022-11-02T06:55:27.115Z,101208.69
2022-11-02T06:57:57.223Z,101205.41
2022-11-02T07:00:27.299Z,101206.63
2022-11-02T07:03:04.002Z,101211.06
2022-11-02T07:05:35.469Z,101209.00
2022-11-02T07:08:08.524Z,101198.84
2022-11-02T07:10:38.826Z,101200.47
2022-11-02T07:13:09.560Z,101202.53
2022-11-02T07:15:40.106Z,101198.09
2022-11-02T07:18:10.923Z,101202.69
2022-11-02T07:20:41.426Z,101201.50
2022-11-02T07:23:14.308Z,101194.22
2022-11-02T07:25:44.286Z,101201.56
2022-11-02T07:28:14.747Z,101196.66
2022-11-02T07:30:45.201Z,101193.03
2022-11-02T07:33:15.735Z,101189.41
2022-11-02T07:35:45.954Z,101179.28
2022-11-02T07:38:18.286Z,101182.13
2022-11-02T07:40:52.636Z,101184.16
2022-11-02T07:43:23.170Z,101193.53
2022-11-02T07:45:53.608Z,101202.84
2022-11-02T07:48:23.637Z,101195.53
2022-11-02T07:50:54.065Z,101187.41
2022-11-02T07:53:26.486Z,101179.28
2022-11-02T07:55:57.030Z,101185.34
2022-11-02T07:58:27.558Z,101178.81
2022-11-02T08:01:00.836Z,101184.09
2022-11-02T08:03:32.946Z,101178.81
2022-11-02T08:06:05.390Z,101182.03
2022-11-02T08:08:38.772Z,101174.69
2022-11-02T08:11:11.957Z,101177.94
2022-11-02T08:13:41.994Z,101176.69
2022-11-02T08:16:12.712Z,101180.25
2022-11-02T08:18:43.425Z,101178.59
2022-11-02T08:21:13.496Z,101175.34
2022-11-02T08:23:46.265Z,101181.00
2022-11-02T08:26:16.708Z,101166.72
2022-11-02T08:28:46.885Z,101159.81
2022-11-02T08:31:19.968Z,101163.44
2022-11-02T08:33:50.097Z,101157.31
2022-11-02T08:36:20.590Z,101153.25
2022-11-02T08:38:53.125Z,101150.84
2022-11-02T08:41:22.958Z,101156.09
2022-11-02T08:43:53.758Z,101149.56
2022-11-02T08:46:24.172Z,101148.78
2022-11-02T08:48:54.715Z,101132.97
2022-11-02T08:51:25.120Z,101135.00
2022-11-02T08:53:57.379Z,101125.28
2022-11-02T08:56:28.119Z,101124.88
2022-11-02T08:58:58.464Z,101125.72
2022-11-02T09:01:28.424Z,101124.53
2022-11-02T09:03:58.956Z,101126.97
2022-11-02T09:06:29.453Z,101126.19
2022-11-02T09:09:01.684Z,101120.94
2022-11-02T09:11:32.713Z,101117.28
2022-11-02T09:14:04.501Z,101119.31
2022-11-02T09:16:40.210Z,101116.47
2022-11-02T09:19:11.355Z,101114.03
2022-11-02T09:21:41.577Z,101112.00
2022-11-02T09:24:15.379Z,101096.56
2022-11-02T09:26:45.851Z,101099.03
2022-11-02T09:29:15.929Z,101085.63
2022-11-02T09:31:49.307Z,101090.91
2022-11-02T09:34:20.577Z,101083.63
2022-11-02T09:36:51.043Z,101079.94
2022-11-02T09:39:25.054Z,101085.22
2022-11-02T09:42:09.697Z,101082.00
2022-11-02T09:44:51.634Z,101076.31
2022-11-02T09:48:10.917Z,101077.94
2022-11-02T09:50:23.481Z,101079.56
2022-11-02T09:53:02.447Z,101077.94
2022-11-02T09:55:40.638Z,101079.16
2022-11-02T09:58:19.176Z,101069.41
2022-11-02T10:01:01.504Z,101070.22
2022-11-02T10:03:54.956Z,101069.00
2022-11-02T10:06:28.636Z,101060.88
2022-11-02T10:09:10.559Z,101058.44
2022-11-02T10:11:53.943Z,101056.00
2022-11-02T10:14:32.782Z,101052.75
2022-11-02T10:17:19.853Z,101045.44
2022-11-02T10:19:57.010Z,101048.69
2022-11-02T10:22:39.125Z,101043.78
2022-11-02T10:25:16.180Z,101048.25
2022-11-02T10:27:55.305Z,101045.78
2022-11-02T10:30:25.327Z,101035.63
2022-11-02T10:32:59.061Z,101030.38
2022-11-02T10:36:04.674Z,101034.41
2022-11-02T10:38:52.073Z,101030.38
2022-11-02T10:41:55.912Z,101030.72
2022-11-02T10:44:51.799Z,101029.09
2022-11-02T10:47:25.886Z,101032.34
2022-11-02T10:50:21.878Z,101032.75
2022-11-02T10:52:52.329Z,101016.53
2022-11-02T10:55:29.939Z,101022.19
2022-11-02T10:58:06.780Z,101031.94
2022-11-02T11:00:41.168Z,101022.56
2022-11-02T11:03:14.778Z,101018.56
2022-11-02T11:06:02.377Z,101027.44
2022-11-02T11:08:40.220Z,101014.84
2022-11-02T11:11:24.938Z,101016.47
2022-11-02T11:19:53.889Z,101008.31
2022-11-02T11:22:31.945Z,101016.03
2022-11-02T11:25:27.973Z,101003.84
2022-11-02T11:28:00.180Z,101011.94
2022-11-02T11:30:58.479Z,101007.09
2022-11-02T11:33:26.730Z,101003.81
2022-11-02T11:35:57.260Z,101003.41
2022-11-02T11:38:30.150Z,100999.78
2022-11-02T11:41:02.530Z,100995.31
2022-11-02T11:43:41.220Z,101003.81
2022-11-02T11:46:14.782Z,100996.09
2022-11-02T11:48:53.405Z,100994.03
2022-11-02T11:51:39.525Z,100994.88
2022-11-02T11:54:29.453Z,100986.75
2022-11-02T11:57:02.407Z,100985.13
2022-11-02T11:59:48.117Z,100990.41
2022-11-02T12:02:27.714Z,100985.94
2022-11-02T12:05:14.317Z,100987.13
2022-11-02T12:08:30.464Z,100992.81
2022-11-02T12:11:20.840Z,101005.38
2022-11-02T12:14:17.838Z,100979.41
2022-11-02T12:17:19.127Z,100989.97
2022-11-02T12:20:22.495Z,100985.06
2022-11-02T12:23:05.397Z,100980.59
2022-11-02T12:25:53.135Z,100986.69
2022-11-02T12:28:42.862Z,100984.25
2022-11-02T12:31:32.887Z,100990.31
2022-11-02T12:34:31.623Z,100982.59
2022-11-02T12:37:38.630Z,100980.13
2022-11-02T12:40:28.677Z,100983.38
2022-11-02T12:43:17.486Z,100986.59
2022-11-02T12:45:58.929Z,100985.34
2022-11-02T12:48:45.911Z,100983.34
2022-11-02T12:51:22.637Z,100985.75
2022-11-02T12:54:00.764Z,100982.91
2022-11-02T12:56:44.275Z,100983.69
2022-11-02T12:59:23.091Z,100976.81
2022-11-02T13:02:00.898Z,100984.03
2022-11-02T13:04:41.125Z,100986.84
2022-11-02T13:07:18.079Z,100984.44
2022-11-02T13:10:02.866Z,100979.16
2022-11-02T13:12:39.174Z,100983.19
2022-11-02T13:15:18.328Z,100985.22
2022-11-02T13:17:52.822Z,100986.41
2022-11-02T13:20:28.385Z,100980.34
2022-11-02T13:23:06.087Z,100989.25
2022-11-02T13:25:45.103Z,100983.56
2022-11-02T13:28:21.741Z,100981.16
2022-11-02T13:30:53.396Z,100988.03
2022-11-02T13:33:46.216Z,100987.25
2022-11-02T13:36:18.169Z,100988.44
2022-11-02T13:38:54.876Z,100985.22
2022-11-02T13:42:06.679Z,100988.03
2022-11-02T13:45:18.037Z,100990.06
2022-11-02T13:48:24.350Z,100990.44
2022-11-02T13:51:00.441Z,100995.31
2022-11-02T13:53:37.543Z,100992.88
2022-11-02T13:56:15.791Z,100993.25
2022-11-02T13:58:56.486Z,100994.84
2022-11-02T14:01:29.085Z,101002.53
2022-11-02T14:04:05.642Z,100995.66
2022-11-02T14:06:50.560Z,101004.59
2022-11-02T14:09:39.212Z,100998.13
2022-11-02T14:12:43.922Z,100993.66
2022-11-02T14:15:56.367Z,101007.84
2022-11-02T14:18:33.866Z,101004.16
2022-11-02T14:21:43.470Z,101001.72
2022-11-02T14:24:56.820Z,101002.94
2022-11-02T14:27:34.235Z,101008.59
2022-11-02T14:30:04.333Z,101001.69
2022-11-02T14:33:07.839Z,101002.91
2022-11-02T14:35:52.467Z,101002.06
2022-11-02T14:38:57.834Z,100998.75
2022-11-02T14:42:12.043Z,101003.13
2022-11-02T14:45:08.198Z,101006.75
2022-11-02T14:47:42.247Z,101014.03
2022-11-02T14:50:21.516Z,101008.34
2022-11-02T14:53:06.802Z,101004.72
2022-11-02T14:55:40.064Z,101013.22
2022-11-02T14:58:20.490Z,101009.97
2022-11-02T15:01:02.367Z,101012.81
2022-11-02T15:03:41.623Z,101014.81
2022-11-02T15:06:24.030Z,101022.53
2022-11-02T15:08:58.776Z,101023.72
2022-11-02T15:11:51.209Z,101026.13
2022-11-02T15:15:01.193Z,101027.72
2022-11-02T15:18:25.434Z,101024.84
2022-11-02T15:21:30.429Z,101030.88
2022-11-02T15:24:20.157Z,101041.00
2022-11-02T15:26:58.035Z,101039.81
2022-11-02T15:29:43.586Z,101044.69
2022-11-02T15:32:22.773Z,101043.03
2022-11-02T15:34:55.862Z,101046.66
2022-11-02T15:37:37.291Z,101066.06
2022-11-02T15:40:24.231Z,101055.13
2022-11-02T15:43:08.909Z,101063.22
2022-11-02T15:46:06.480Z,101058.38
2022-11-02T15:48:51.186Z,101064.81
2022-11-02T15:51:34.780Z,101062.38
2022-11-02T15:54:30.906Z,101059.91
2022-11-02T15:57:20.400Z,101067.59
2022-11-02T16:00:13.265Z,101067.94
2022-11-02T16:02:48.350Z,101071.19
2022-11-02T16:05:28.342Z,101074.44
2022-11-02T16:08:16.644Z,101078.47
2022-11-02T16:10:50.806Z,101076.44
2022-11-02T16:13:24.894Z,101080.13
2022-11-02T16:16:09.929Z,101088.63
2022-11-02T16:18:42.476Z,101089.81
2022-11-02T16:21:17.707Z,101091.44
2022-11-02T16:23:53.741Z,101089.81
2022-11-02T16:26:29.648Z,101089.81
2022-11-02T16:29:03.590Z,101096.28
2022-11-02T16:31:34.351Z,101093.84
2022-11-02T16:34:10.444Z,101095.88
2022-11-02T16:36:42.594Z,101093.03
2022-11-02T16:39:30.722Z,101087.38
2022-11-02T16:42:05.472Z,101099.91
2022-11-02T16:44:37.803Z,101102.31
2022-11-02T16:47:21.027Z,101093.81
2022-11-02T16:50:01.645Z,101095.00
2022-11-02T16:52:36.540Z,101095.41
2022-11-02T16:55:40.399Z,101092.13
2022-11-02T16:58:21.058Z,101094.13
2022-11-02T17:01:02.281Z,101101.81
2022-11-02T17:03:35.932Z,101095.34
2022-11-02T17:06:13.139Z,101104.19
2022-11-02T17:08:58.805Z,101107.88
2022-11-02T17:11:31.011Z,101113.91
2022-11-02T17:14:13.389Z,101102.56
2022-11-02T17:17:07.815Z,101108.22
2022-11-02T17:19:58.910Z,101112.25
2022-11-02T17:22:42.804Z,101108.63
2022-11-02T17:25:22.444Z,101102.16
2022-11-02T17:27:55.636Z,101114.72
2022-11-02T17:30:51.330Z,101108.63
2022-11-02T17:33:31.644Z,101109.03
2022-11-02T17:36:10.252Z,101109.81
2022-11-02T17:38:45.864Z,101114.69
2022-11-02T17:41:36.825Z,101111.84
2022-11-02T17:44:12.419Z,101107.75
2022-11-02T17:46:46.085Z,101098.84
2022-11-02T17:49:16.972Z,101109.34
2022-11-02T17:51:47.753Z,101108.56
2022-11-02T17:54:18.823Z,101115.41
2022-11-02T17:56:49.224Z,101112.59
2022-11-02T17:59:19.711Z,101127.94
2022-11-02T18:01:52.044Z,101114.97
2022-11-02T18:04:22.232Z,101110.50
2022-11-02T18:06:52.817Z,101121.03
2022-11-02T18:09:29.477Z,101127.06
2022-11-02T18:12:01.081Z,101121.41
2022-11-02T18:14:31.295Z,101125.44
2022-11-02T18:17:03.945Z,101126.66
2022-11-02T18:19:34.299Z,101125.81
2022-11-02T18:22:04.980Z,101137.53
2022-11-02T18:24:34.725Z,101136.72
2022-11-02T18:27:05.387Z,101128.63
2022-11-02T18:29:35.791Z,101133.44
2022-11-02T18:32:08.332Z,101134.66
2022-11-02T18:34:38.806Z,101131.00
2022-11-02T18:37:09.725Z,101139.91
2022-11-02T18:39:40.253Z,101145.91
2022-11-02T18:42:10.807Z,101140.25
2022-11-02T18:44:41.354Z,101141.50
2022-11-02T18:47:13.939Z,101139.03
2022-11-02T18:49:44.868Z,101140.59
2022-11-02T18:52:21.520Z,101141.38
2022-11-02T18:54:53.597Z,101145.78
2022-11-02T18:57:27.976Z,101145.34
2022-11-02T18:59:58.833Z,101141.72
2022-11-02T19:02:32.263Z,101139.63
2022-11-02T19:05:02.801Z,101142.44
2022-11-02T19:07:49.847Z,101138.34
2022-11-02T19:10:20.132Z,101135.47
2022-11-02T19:12:50.661Z,101140.31
2022-11-02T19:15:20.715Z,101132.22
2022-11-02T19:17:53.646Z,101141.91
2022-11-02T19:20:24.033Z,101140.22
2022-11-02T19:22:56.521Z,101136.50
2022-11-02T19:25:27.070Z,101144.59
2022-11-02T19:27:57.494Z,101142.88
2022-11-02T19:30:27.483Z,101140.44
2022-11-02T19:33:00.365Z,101142.06
2022-11-02T19:35:31.053Z,101143.28
2022-11-02T19:38:01.582Z,101135.97
2022-11-02T19:40:32.327Z,101132.72
2022-11-02T19:43:02.712Z,101138.38
2022-11-02T19:45:34.047Z,101147.25
2022-11-02T19:48:07.407Z,101150.47
2022-11-02T19:50:38.433Z,101146.00
2022-11-02T19:53:09.144Z,101154.88
2022-11-02T19:55:39.787Z,101150.41
2022-11-02T19:58:10.517Z,101158.91
2022-11-02T20:00:40.648Z,101156.06
2022-11-02T20:03:16.472Z,101166.19
2022-11-02T20:05:47.955Z,101158.91
2022-11-02T20:08:18.670Z,101152.41
2022-11-02T20:10:49.391Z,101149.97
2022-11-02T20:13:20.106Z,101149.53
2022-11-02T20:15:50.847Z,101146.69
2022-11-02T20:18:23.364Z,101145.06
2022-11-02T20:20:54.784Z,101149.91
2022-11-02T20:23:24.759Z,101142.63
2022-11-02T20:25:55.126Z,101148.66
2022-11-02T20:28:24.994Z,101144.22
2022-11-02T20:30:56.516Z,101150.22
2022-11-02T20:33:29.293Z,101144.13
2022-11-02T20:36:14.409Z,101146.09
2022-11-02T20:38:45.782Z,101137.97
2022-11-02T20:41:19.299Z,101144.84
2022-11-02T20:43:51.289Z,101145.22
2022-11-02T20:46:37.182Z,101142.38
2022-11-02T20:49:22.858Z,101152.44
2022-11-02T20:52:01.872Z,101144.72
2022-11-02T20:54:32.462Z,101146.28
2022-11-02T20:57:05.153Z,101150.69
2022-11-02T20:59:35.605Z,101149.47
2022-11-02T21:02:06.405Z,101143.34
2022-11-02T21:04:39.098Z,101139.22
2022-11-02T21:07:09.483Z,101132.25
2022-11-02T21:09:40.120Z,101137.41
2022-11-02T21:12:31.704Z,101139.38
2022-11-02T21:15:02.896Z,101142.06
2022-11-02T21:17:33.616Z,101145.66
2022-11-02T21:23:01.157Z,101145.56
2022-11-02T21:25:32.124Z,101150.41
2022-11-02T21:28:03.548Z,101146.78
2022-11-02T21:30:34.525Z,101138.66
2022-11-02T21:33:04.578Z,101143.50
2022-11-02T21:35:36.825Z,101140.25
2022-11-02T21:38:08.002Z,101142.63
2022-11-02T21:40:38.989Z,101138.16
2022-11-02T21:43:09.580Z,101141.38
2022-11-02T21:45:39.453Z,101142.16
2022-11-02T21:48:09.593Z,101140.53
2022-11-02T21:50:42.518Z,101137.28
2022-11-02T21:53:13.201Z,101139.66
2022-11-02T21:55:43.893Z,101131.13
2022-11-02T21:58:14.695Z,101129.03
2022-11-02T22:01:04.232Z,101131.06
2022-11-02T22:03:34.636Z,101131.41
2022-11-02T22:06:07.012Z,101124.59
2022-11-02T22:08:43.408Z,101131.06
2022-11-02T22:11:16.956Z,101131.41
2022-11-02T22:13:47.783Z,101133.44
2022-11-02T22:16:20.869Z,101139.09
2022-11-02T22:18:51.789Z,101133.44
2022-11-02T22:21:25.253Z,101146.38
2022-11-02T22:23:55.665Z,101144.34
2022-11-02T22:26:28.893Z,101139.53
2022-11-02T22:29:01.204Z,101143.56
2022-11-02T22:31:34.784Z,101148.75
2022-11-02T22:34:08.382Z,101154.41
2022-11-02T22:36:42.926Z,101143.50
2022-11-02T22:39:14.350Z,101148.31
2022-11-02T22:41:46.231Z,101141.03
2022-11-02T22:44:18.965Z,101139.38
2022-11-02T22:46:52.450Z,101141.72
2022-11-02T22:49:23.194Z,101143.28
2022-11-02T22:51:55.256Z,101135.59
2022-11-02T22:54:25.821Z,101148.44
2022-11-02T22:56:57.965Z,101145.53
2022-11-02T22:59:28.502Z,101136.63
2022-11-02T23:01:58.887Z,101147.50
2022-11-02T23:04:29.272Z,101137.38
2022-11-02T23:07:02.047Z,101140.56
2022-11-02T23:09:32.604Z,101138.50
2022-11-02T23:12:01.146Z,101136.03
2022-11-02T23:14:31.761Z,101139.25
2022-11-02T23:17:01.762Z,101135.59
2022-11-02T23:19:30.480Z,101133.97
2022-11-02T23:22:21.898Z,101141.63
2022-11-02T23:25:10.583Z,101137.53
2022-11-02T23:27:56.175Z,101131.44
2022-11-02T23:30:43.866Z,101129.81
2022-11-02T23:33:14.377Z,101139.47
2022-11-02T23:36:01.219Z,101135.84
2022-11-02T23:38:46.899Z,101140.22
2022-11-02T23:41:17.645Z,101150.22
2022-11-02T23:43:48.908Z,101146.59
2022-11-02T23:46:20.147Z,101141.34
2022-11-02T23:48:53.647Z,101146.16
2022-11-02T23:51:40.675Z,101135.59
2022-11-02T23:54:29.291Z,101141.63
2022-11-02T23:56:58.996Z,101148.81
2022-11-02T23:59:29.512Z,101146.81
